sensor_id;sensor_type;location;lat;lon;timestamp;P1;durP1;ratioP1;P2;durP2;ratioP2
8622;SDS011;4349;47.552;8.904;2023-06-22T00:01:18;8.37;;;5.97;;
8622;SDS011;4349;47.552;8.904;2023-06-22T00:03:45;7.27;;;5.97;;
8622;SDS011;4349;47.552;8.904;2023-06-22T00:06:13;6.67;;;5.50;;
8622;SDS011;4349;47.552;8.904;2023-06-22T00:08:42;6.77;;;6.10;;
8622;SDS011;4349;47.552;8.904;2023-06-22T00:11:09;6.30;;;5.77;;
8622;SDS011;4349;47.552;8.904;2023-06-22T00:13:37;8.10;;;5.57;;
8622;SDS011;4349;47.552;8.904;2023-06-22T00:16:04;6.23;;;5.63;;
8622;SDS011;4349;47.552;8.904;2023-06-22T00:18:32;9.13;;;5.77;;
8622;SDS011;4349;47.552;8.904;2023-06-22T00:21:00;7.13;;;6.40;;
8622;SDS011;4349;47.552;8.904;2023-06-22T00:23:27;7.60;;;5.93;;
8622;SDS011;4349;47.552;8.904;2023-06-22T00:25:56;6.20;;;5.60;;
8622;SDS011;4349;47.552;8.904;2023-06-22T00:28:23;6.70;;;6.10;;
8622;SDS011;4349;47.552;8.904;2023-06-22T00:30:52;6.27;;;5.77;;
8622;SDS011;4349;47.552;8.904;2023-06-22T00:33:20;6.10;;;5.57;;
8622;SDS011;4349;47.552;8.904;2023-06-22T00:35:48;7.90;;;6.20;;
8622;SDS011;4349;47.552;8.904;2023-06-22T00:38:18;8.60;;;5.90;;
8622;SDS011;4349;47.552;8.904;2023-06-22T00:40:47;8.30;;;6.87;;
8622;SDS011;4349;47.552;8.904;2023-06-22T00:43:15;6.60;;;5.97;;
8622;SDS011;4349;47.552;8.904;2023-06-22T00:45:43;8.50;;;5.77;;
8622;SDS011;4349;47.552;8.904;2023-06-22T00:48:10;6.50;;;5.90;;
8622;SDS011;4349;47.552;8.904;2023-06-22T00:50:39;6.70;;;5.93;;
8622;SDS011;4349;47.552;8.904;2023-06-22T00:53:07;6.27;;;5.60;;
8622;SDS011;4349;47.552;8.904;2023-06-22T00:55:38;6.37;;;5.73;;
8622;SDS011;4349;47.552;8.904;2023-06-22T00:58:06;7.17;;;6.43;;
8622;SDS011;4349;47.552;8.904;2023-06-22T01:00:38;6.87;;;6.27;;
8622;SDS011;4349;47.552;8.904;2023-06-22T01:03:09;6.53;;;5.93;;
8622;SDS011;4349;47.552;8.904;2023-06-22T01:05:37;6.97;;;5.97;;
8622;SDS011;4349;47.552;8.904;2023-06-22T01:08:07;6.40;;;5.90;;
8622;SDS011;4349;47.552;8.904;2023-06-22T01:10:40;5.63;;;5.23;;
8622;SDS011;4349;47.552;8.904;2023-06-22T01:13:11;7.17;;;6.13;;
8622;SDS011;4349;47.552;8.904;2023-06-22T01:15:44;7.57;;;6.70;;
8622;SDS011;4349;47.552;8.904;2023-06-22T01:18:12;11.47;;;6.80;;
8622;SDS011;4349;47.552;8.904;2023-06-22T01:20:42;7.63;;;6.43;;
8622;SDS011;4349;47.552;8.904;2023-06-22T01:23:10;7.10;;;6.43;;
8622;SDS011;4349;47.552;8.904;2023-06-22T01:25:43;8.43;;;6.47;;
8622;SDS011;4349;47.552;8.904;2023-06-22T01:28:17;6.90;;;6.30;;
8622;SDS011;4349;47.552;8.904;2023-06-22T01:30:48;7.27;;;6.50;;
8622;SDS011;4349;47.552;8.904;2023-06-22T01:33:16;7.70;;;6.10;;
8622;SDS011;4349;47.552;8.904;2023-06-22T01:35:44;6.97;;;6.30;;
8622;SDS011;4349;47.552;8.904;2023-06-22T01:38:11;7.33;;;6.43;;
8622;SDS011;4349;47.552;8.904;2023-06-22T01:40:39;9.50;;;6.60;;
8622;SDS011;4349;47.552;8.904;2023-06-22T01:43:06;7.00;;;6.40;;
8622;SDS011;4349;47.552;8.904;2023-06-22T01:45:34;7.10;;;6.40;;
8622;SDS011;4349;47.552;8.904;2023-06-22T01:48:04;9.23;;;7.80;;
8622;SDS011;4349;47.552;8.904;2023-06-22T01:50:34;7.07;;;6.40;;
8622;SDS011;4349;47.552;8.904;2023-06-22T01:53:01;9.80;;;7.53;;
8622;SDS011;4349;47.552;8.904;2023-06-22T01:55:29;7.13;;;6.27;;
8622;SDS011;4349;47.552;8.904;2023-06-22T01:57:56;7.27;;;6.67;;
8622;SDS011;4349;47.552;8.904;2023-06-22T02:00:24;10.17;;;7.20;;
8622;SDS011;4349;47.552;8.904;2023-06-22T02:02:56;9.03;;;7.40;;
8622;SDS011;4349;47.552;8.904;2023-06-22T02:05:28;8.80;;;7.13;;
8622;SDS011;4349;47.552;8.904;2023-06-22T02:08:00;8.30;;;7.43;;
8622;SDS011;4349;47.552;8.904;2023-06-22T02:10:30;8.63;;;7.20;;
8622;SDS011;4349;47.552;8.904;2023-06-22T02:12:58;8.03;;;7.23;;
8622;SDS011;4349;47.552;8.904;2023-06-22T02:15:26;9.80;;;7.43;;
8622;SDS011;4349;47.552;8.904;2023-06-22T02:17:54;8.73;;;7.40;;
8622;SDS011;4349;47.552;8.904;2023-06-22T02:20:21;8.73;;;7.73;;
8622;SDS011;4349;47.552;8.904;2023-06-22T02:22:52;8.33;;;7.60;;
8622;SDS011;4349;47.552;8.904;2023-06-22T02:25:19;10.23;;;7.33;;
8622;SDS011;4349;47.552;8.904;2023-06-22T02:27:47;9.47;;;8.40;;
8622;SDS011;4349;47.552;8.904;2023-06-22T02:30:16;12.03;;;7.90;;
8622;SDS011;4349;47.552;8.904;2023-06-22T02:32:43;8.37;;;7.57;;
8622;SDS011;4349;47.552;8.904;2023-06-22T02:35:14;11.37;;;8.77;;
8622;SDS011;4349;47.552;8.904;2023-06-22T02:37:42;10.00;;;8.80;;
8622;SDS011;4349;47.552;8.904;2023-06-22T02:40:11;10.77;;;8.47;;
8622;SDS011;4349;47.552;8.904;2023-06-22T02:42:39;10.37;;;8.07;;
8622;SDS011;4349;47.552;8.904;2023-06-22T02:45:07;10.03;;;8.00;;
8622;SDS011;4349;47.552;8.904;2023-06-22T02:47:35;9.30;;;7.83;;
8622;SDS011;4349;47.552;8.904;2023-06-22T02:50:09;9.43;;;7.97;;
8622;SDS011;4349;47.552;8.904;2023-06-22T02:52:37;9.30;;;7.47;;
8622;SDS011;4349;47.552;8.904;2023-06-22T02:55:05;12.80;;;7.87;;
8622;SDS011;4349;47.552;8.904;2023-06-22T02:57:35;9.13;;;7.53;;
8622;SDS011;4349;47.552;8.904;2023-06-22T03:00:03;9.83;;;7.37;;
8622;SDS011;4349;47.552;8.904;2023-06-22T03:02:39;9.33;;;7.70;;
8622;SDS011;4349;47.552;8.904;2023-06-22T03:05:07;9.00;;;7.47;;
8622;SDS011;4349;47.552;8.904;2023-06-22T03:07:36;10.40;;;7.83;;
8622;SDS011;4349;47.552;8.904;2023-06-22T03:10:06;9.37;;;8.53;;
8622;SDS011;4349;47.552;8.904;2023-06-22T03:12:35;8.83;;;7.00;;
8622;SDS011;4349;47.552;8.904;2023-06-22T03:15:03;8.27;;;7.40;;
8622;SDS011;4349;47.552;8.904;2023-06-22T03:17:33;15.60;;;7.83;;
8622;SDS011;4349;47.552;8.904;2023-06-22T03:20:00;8.43;;;7.57;;
8622;SDS011;4349;47.552;8.904;2023-06-22T03:22:35;9.40;;;7.33;;
8622;SDS011;4349;47.552;8.904;2023-06-22T03:25:04;8.90;;;7.57;;
8622;SDS011;4349;47.552;8.904;2023-06-22T03:27:39;9.50;;;7.60;;
8622;SDS011;4349;47.552;8.904;2023-06-22T03:30:08;8.07;;;7.27;;
8622;SDS011;4349;47.552;8.904;2023-06-22T03:32:36;8.00;;;7.20;;
8622;SDS011;4349;47.552;8.904;2023-06-22T03:35:05;7.87;;;7.07;;
8622;SDS011;4349;47.552;8.904;2023-06-22T03:37:35;9.00;;;7.67;;
8622;SDS011;4349;47.552;8.904;2023-06-22T03:40:04;11.17;;;7.17;;
8622;SDS011;4349;47.552;8.904;2023-06-22T03:42:33;9.00;;;6.93;;
8622;SDS011;4349;47.552;8.904;2023-06-22T03:45:02;9.47;;;7.13;;
8622;SDS011;4349;47.552;8.904;2023-06-22T03:47:33;9.00;;;7.07;;
8622;SDS011;4349;47.552;8.904;2023-06-22T03:50:01;7.97;;;7.00;;
8622;SDS011;4349;47.552;8.904;2023-06-22T03:52:30;7.73;;;7.00;;
8622;SDS011;4349;47.552;8.904;2023-06-22T03:54:57;8.33;;;7.50;;
8622;SDS011;4349;47.552;8.904;2023-06-22T03:57:25;10.67;;;8.17;;
8622;SDS011;4349;47.552;8.904;2023-06-22T03:59:53;9.20;;;8.07;;
8622;SDS011;4349;47.552;8.904;2023-06-22T04:02:22;10.00;;;8.73;;
8622;SDS011;4349;47.552;8.904;2023-06-22T04:04:50;8.97;;;7.57;;
8622;SDS011;4349;47.552;8.904;2023-06-22T04:07:18;10.10;;;7.93;;
8622;SDS011;4349;47.552;8.904;2023-06-22T04:09:45;10.63;;;7.97;;
8622;SDS011;4349;47.552;8.904;2023-06-22T04:12:13;9.10;;;7.80;;
8622;SDS011;4349;47.552;8.904;2023-06-22T04:14:40;8.07;;;7.23;;
8622;SDS011;4349;47.552;8.904;2023-06-22T04:17:08;9.23;;;7.90;;
8622;SDS011;4349;47.552;8.904;2023-06-22T04:19:36;7.83;;;7.03;;
8622;SDS011;4349;47.552;8.904;2023-06-22T04:22:04;9.03;;;8.00;;
8622;SDS011;4349;47.552;8.904;2023-06-22T04:24:33;9.00;;;7.77;;
8622;SDS011;4349;47.552;8.904;2023-06-22T04:27:00;10.53;;;7.83;;
8622;SDS011;4349;47.552;8.904;2023-06-22T04:29:29;11.57;;;8.77;;
8622;SDS011;4349;47.552;8.904;2023-06-22T04:31:56;8.70;;;7.80;;
8622;SDS011;4349;47.552;8.904;2023-06-22T04:34:29;8.93;;;8.03;;
8622;SDS011;4349;47.552;8.904;2023-06-22T04:36:58;9.37;;;8.37;;
8622;SDS011;4349;47.552;8.904;2023-06-22T04:39:25;11.57;;;8.10;;
8622;SDS011;4349;47.552;8.904;2023-06-22T04:41:53;9.20;;;8.03;;
8622;SDS011;4349;47.552;8.904;2023-06-22T04:44:27;9.83;;;7.33;;
8622;SDS011;4349;47.552;8.904;2023-06-22T04:46:55;10.80;;;8.07;;
8622;SDS011;4349;47.552;8.904;2023-06-22T04:49:26;10.17;;;8.13;;
8622;SDS011;4349;47.552;8.904;2023-06-22T04:52:00;9.47;;;8.00;;
8622;SDS011;4349;47.552;8.904;2023-06-22T04:54:28;9.57;;;8.33;;
8622;SDS011;4349;47.552;8.904;2023-06-22T04:56:55;9.23;;;8.30;;
8622;SDS011;4349;47.552;8.904;2023-06-22T04:59:23;9.87;;;8.07;;
8622;SDS011;4349;47.552;8.904;2023-06-22T05:01:55;11.37;;;8.03;;
8622;SDS011;4349;47.552;8.904;2023-06-22T05:04:22;10.30;;;7.60;;
8622;SDS011;4349;47.552;8.904;2023-06-22T05:06:50;13.37;;;9.80;;
8622;SDS011;4349;47.552;8.904;2023-06-22T05:09:19;9.63;;;7.80;;
8622;SDS011;4349;47.552;8.904;2023-06-22T05:11:47;9.27;;;8.20;;
8622;SDS011;4349;47.552;8.904;2023-06-22T05:14:14;11.27;;;8.03;;
8622;SDS011;4349;47.552;8.904;2023-06-22T05:16:42;12.50;;;8.10;;
8622;SDS011;4349;47.552;8.904;2023-06-22T05:19:10;9.20;;;8.33;;
8622;SDS011;4349;47.552;8.904;2023-06-22T05:21:38;11.93;;;8.10;;
8622;SDS011;4349;47.552;8.904;2023-06-22T05:24:05;9.87;;;7.90;;
8622;SDS011;4349;47.552;8.904;2023-06-22T05:26:34;11.47;;;8.80;;
8622;SDS011;4349;47.552;8.904;2023-06-22T05:29:02;10.47;;;8.57;;
8622;SDS011;4349;47.552;8.904;2023-06-22T05:31:30;9.33;;;8.50;;
8622;SDS011;4349;47.552;8.904;2023-06-22T05:33:57;12.53;;;8.63;;
8622;SDS011;4349;47.552;8.904;2023-06-22T05:36:26;12.23;;;9.20;;
8622;SDS011;4349;47.552;8.904;2023-06-22T05:38:56;12.70;;;8.87;;
8622;SDS011;4349;47.552;8.904;2023-06-22T05:41:24;11.73;;;9.40;;
8622;SDS011;4349;47.552;8.904;2023-06-22T05:43:52;11.83;;;9.10;;
8622;SDS011;4349;47.552;8.904;2023-06-22T05:46:20;10.47;;;9.13;;
8622;SDS011;4349;47.552;8.904;2023-06-22T05:48:47;15.90;;;9.40;;
8622;SDS011;4349;47.552;8.904;2023-06-22T05:51:14;11.20;;;10.00;;
8622;SDS011;4349;47.552;8.904;2023-06-22T05:53:42;14.80;;;9.83;;
8622;SDS011;4349;47.552;8.904;2023-06-22T05:56:10;11.60;;;9.63;;
8622;SDS011;4349;47.552;8.904;2023-06-22T05:58:38;12.40;;;10.03;;
8622;SDS011;4349;47.552;8.904;2023-06-22T06:01:06;11.50;;;9.77;;
8622;SDS011;4349;47.552;8.904;2023-06-22T06:03:34;11.70;;;10.00;;
8622;SDS011;4349;47.552;8.904;2023-06-22T06:06:07;10.53;;;9.00;;
8622;SDS011;4349;47.552;8.904;2023-06-22T06:08:34;12.47;;;9.63;;
8622;SDS011;4349;47.552;8.904;2023-06-22T06:11:02;10.97;;;8.80;;
8622;SDS011;4349;47.552;8.904;2023-06-22T06:13:29;12.67;;;9.57;;
8622;SDS011;4349;47.552;8.904;2023-06-22T06:15:57;11.40;;;8.43;;
8622;SDS011;4349;47.552;8.904;2023-06-22T06:18:27;10.47;;;8.63;;
8622;SDS011;4349;47.552;8.904;2023-06-22T06:20:54;11.03;;;8.50;;
8622;SDS011;4349;47.552;8.904;2023-06-22T06:23:21;11.07;;;8.30;;
8622;SDS011;4349;47.552;8.904;2023-06-22T06:25:49;11.90;;;8.40;;
8622;SDS011;4349;47.552;8.904;2023-06-22T06:28:16;10.77;;;8.90;;
8622;SDS011;4349;47.552;8.904;2023-06-22T06:30:44;13.07;;;8.77;;
8622;SDS011;4349;47.552;8.904;2023-06-22T06:33:13;10.37;;;8.37;;
8622;SDS011;4349;47.552;8.904;2023-06-22T06:35:42;11.77;;;9.13;;
8622;SDS011;4349;47.552;8.904;2023-06-22T06:38:09;13.93;;;9.07;;
8622;SDS011;4349;47.552;8.904;2023-06-22T06:40:37;13.73;;;8.83;;
8622;SDS011;4349;47.552;8.904;2023-06-22T06:43:04;10.63;;;9.27;;
8622;SDS011;4349;47.552;8.904;2023-06-22T06:45:32;13.73;;;8.23;;
8622;SDS011;4349;47.552;8.904;2023-06-22T06:48:01;15.37;;;9.53;;
8622;SDS011;4349;47.552;8.904;2023-06-22T06:50:28;13.57;;;8.53;;
8622;SDS011;4349;47.552;8.904;2023-06-22T06:52:58;13.05;;;9.65;;
8622;SDS011;4349;47.552;8.904;2023-06-22T06:55:26;9.00;;;8.17;;
8622;SDS011;4349;47.552;8.904;2023-06-22T06:57:54;12.67;;;9.20;;
8622;SDS011;4349;47.552;8.904;2023-06-22T07:00:22;9.70;;;8.70;;
8622;SDS011;4349;47.552;8.904;2023-06-22T07:02:49;13.33;;;9.07;;
8622;SDS011;4349;47.552;8.904;2023-06-22T07:05:17;12.63;;;8.67;;
8622;SDS011;4349;47.552;8.904;2023-06-22T07:07:44;12.02;;;8.45;;
8622;SDS011;4349;47.552;8.904;2023-06-22T07:10:13;10.07;;;9.07;;
8622;SDS011;4349;47.552;8.904;2023-06-22T07:12:41;11.87;;;8.83;;
8622;SDS011;4349;47.552;8.904;2023-06-22T07:15:09;11.93;;;8.60;;
8622;SDS011;4349;47.552;8.904;2023-06-22T07:17:38;12.23;;;8.80;;
8622;SDS011;4349;47.552;8.904;2023-06-22T07:20:07;9.90;;;8.13;;
8622;SDS011;4349;47.552;8.904;2023-06-22T07:22:37;9.80;;;8.80;;
8622;SDS011;4349;47.552;8.904;2023-06-22T07:25:04;13.60;;;8.48;;
8622;SDS011;4349;47.552;8.904;2023-06-22T07:27:37;11.23;;;8.18;;
8622;SDS011;4349;47.552;8.904;2023-06-22T07:30:05;11.50;;;8.32;;
8622;SDS011;4349;47.552;8.904;2023-06-22T07:32:32;9.73;;;8.35;;
8622;SDS011;4349;47.552;8.904;2023-06-22T07:35:00;11.27;;;8.90;;
8622;SDS011;4349;47.552;8.904;2023-06-22T07:37:28;10.70;;;8.65;;
8622;SDS011;4349;47.552;8.904;2023-06-22T07:39:56;13.00;;;9.03;;
8622;SDS011;4349;47.552;8.904;2023-06-22T07:42:24;11.50;;;9.77;;
8622;SDS011;4349;47.552;8.904;2023-06-22T07:44:53;13.93;;;10.40;;
8622;SDS011;4349;47.552;8.904;2023-06-22T07:47:21;11.93;;;8.68;;
8622;SDS011;4349;47.552;8.904;2023-06-22T07:49:51;10.88;;;8.65;;
8622;SDS011;4349;47.552;8.904;2023-06-22T07:52:20;10.35;;;8.27;;
8622;SDS011;4349;47.552;8.904;2023-06-22T07:54:48;10.68;;;8.93;;
8622;SDS011;4349;47.552;8.904;2023-06-22T07:57:15;13.45;;;9.70;;
8622;SDS011;4349;47.552;8.904;2023-06-22T07:59:43;11.65;;;10.07;;
8622;SDS011;4349;47.552;8.904;2023-06-22T08:02:12;21.10;;;12.25;;
8622;SDS011;4349;47.552;8.904;2023-06-22T08:04:39;14.55;;;11.05;;
8622;SDS011;4349;47.552;8.904;2023-06-22T08:07:07;13.23;;;10.48;;
8622;SDS011;4349;47.552;8.904;2023-06-22T08:09:35;15.90;;;11.88;;
8622;SDS011;4349;47.552;8.904;2023-06-22T08:12:03;13.90;;;10.32;;
8622;SDS011;4349;47.552;8.904;2023-06-22T08:14:31;12.35;;;10.00;;
8622;SDS011;4349;47.552;8.904;2023-06-22T08:16:58;14.23;;;11.40;;
8622;SDS011;4349;47.552;8.904;2023-06-22T08:19:27;12.45;;;11.02;;
8622;SDS011;4349;47.552;8.904;2023-06-22T08:21:55;12.90;;;10.18;;
8622;SDS011;4349;47.552;8.904;2023-06-22T08:24:22;12.95;;;9.65;;
8622;SDS011;4349;47.552;8.904;2023-06-22T08:26:51;13.15;;;9.20;;
8622;SDS011;4349;47.552;8.904;2023-06-22T08:29:18;12.52;;;9.77;;
8622;SDS011;4349;47.552;8.904;2023-06-22T08:31:46;12.45;;;9.27;;
8622;SDS011;4349;47.552;8.904;2023-06-22T08:34:13;14.38;;;9.95;;
8622;SDS011;4349;47.552;8.904;2023-06-22T08:36:44;13.88;;;9.43;;
8622;SDS011;4349;47.552;8.904;2023-06-22T08:39:15;12.93;;;9.82;;
8622;SDS011;4349;47.552;8.904;2023-06-22T08:41:42;11.55;;;9.98;;
8622;SDS011;4349;47.552;8.904;2023-06-22T08:44:11;11.35;;;9.13;;
8622;SDS011;4349;47.552;8.904;2023-06-22T08:46:38;10.40;;;8.90;;
8622;SDS011;4349;47.552;8.904;2023-06-22T08:49:06;12.15;;;9.07;;
8622;SDS011;4349;47.552;8.904;2023-06-22T08:51:36;10.07;;;8.75;;
8622;SDS011;4349;47.552;8.904;2023-06-22T08:54:04;10.48;;;7.93;;
8622;SDS011;4349;47.552;8.904;2023-06-22T08:56:32;14.20;;;7.85;;
8622;SDS011;4349;47.552;8.904;2023-06-22T08:58:59;9.63;;;7.53;;
8622;SDS011;4349;47.552;8.904;2023-06-22T09:01:27;10.52;;;7.07;;
8622;SDS011;4349;47.552;8.904;2023-06-22T09:03:54;11.02;;;8.00;;
8622;SDS011;4349;47.552;8.904;2023-06-22T09:06:24;13.77;;;8.60;;
8622;SDS011;4349;47.552;8.904;2023-06-22T09:08:52;12.02;;;8.00;;
8622;SDS011;4349;47.552;8.904;2023-06-22T09:11:20;9.80;;;8.60;;
8622;SDS011;4349;47.552;8.904;2023-06-22T09:13:48;8.98;;;6.80;;
8622;SDS011;4349;47.552;8.904;2023-06-22T09:16:16;11.32;;;7.82;;
8622;SDS011;4349;47.552;8.904;2023-06-22T09:18:46;11.13;;;8.48;;
8622;SDS011;4349;47.552;8.904;2023-06-22T09:21:14;9.18;;;7.78;;
8622;SDS011;4349;47.552;8.904;2023-06-22T09:23:41;7.85;;;7.07;;
8622;SDS011;4349;47.552;8.904;2023-06-22T09:26:09;11.35;;;8.00;;
8622;SDS011;4349;47.552;8.904;2023-06-22T09:28:38;8.73;;;7.95;;
8622;SDS011;4349;47.552;8.904;2023-06-22T09:31:06;9.48;;;7.65;;
8622;SDS011;4349;47.552;8.904;2023-06-22T09:33:33;11.05;;;7.47;;
8622;SDS011;4349;47.552;8.904;2023-06-22T09:36:01;11.38;;;7.57;;
8622;SDS011;4349;47.552;8.904;2023-06-22T09:38:28;8.93;;;7.43;;
8622;SDS011;4349;47.552;8.904;2023-06-22T09:40:56;11.50;;;8.18;;
8622;SDS011;4349;47.552;8.904;2023-06-22T09:43:23;13.43;;;7.65;;
8622;SDS011;4349;47.552;8.904;2023-06-22T09:45:52;12.75;;;8.07;;
8622;SDS011;4349;47.552;8.904;2023-06-22T09:48:19;12.32;;;6.95;;
8622;SDS011;4349;47.552;8.904;2023-06-22T09:50:47;13.00;;;7.20;;
8622;SDS011;4349;47.552;8.904;2023-06-22T09:53:14;11.05;;;7.60;;
8622;SDS011;4349;47.552;8.904;2023-06-22T09:55:42;8.15;;;7.35;;
8622;SDS011;4349;47.552;8.904;2023-06-22T09:58:10;10.00;;;7.57;;
8622;SDS011;4349;47.552;8.904;2023-06-22T10:00:37;11.35;;;8.13;;
8622;SDS011;4349;47.552;8.904;2023-06-22T10:03:07;14.70;;;7.10;;
8622;SDS011;4349;47.552;8.904;2023-06-22T10:05:35;13.10;;;6.72;;
8622;SDS011;4349;47.552;8.904;2023-06-22T10:08:03;11.52;;;7.07;;
8622;SDS011;4349;47.552;8.904;2023-06-22T10:10:30;7.63;;;6.72;;
8622;SDS011;4349;47.552;8.904;2023-06-22T10:13:02;7.25;;;6.13;;
8622;SDS011;4349;47.552;8.904;2023-06-22T10:15:30;9.27;;;7.28;;
8622;SDS011;4349;47.552;8.904;2023-06-22T10:17:58;9.75;;;6.45;;
8622;SDS011;4349;47.552;8.904;2023-06-22T10:20:27;11.80;;;6.80;;
8622;SDS011;4349;47.552;8.904;2023-06-22T10:22:54;11.27;;;7.60;;
8622;SDS011;4349;47.552;8.904;2023-06-22T10:25:26;10.85;;;6.32;;
8622;SDS011;4349;47.552;8.904;2023-06-22T10:27:54;13.50;;;6.65;;
8622;SDS011;4349;47.552;8.904;2023-06-22T10:30:22;12.45;;;7.05;;
8622;SDS011;4349;47.552;8.904;2023-06-22T10:32:50;11.73;;;6.40;;
8622;SDS011;4349;47.552;8.904;2023-06-22T10:35:17;10.15;;;6.55;;
8622;SDS011;4349;47.552;8.904;2023-06-22T10:37:46;10.68;;;6.22;;
8622;SDS011;4349;47.552;8.904;2023-06-22T10:40:14;8.25;;;6.55;;
8622;SDS011;4349;47.552;8.904;2023-06-22T10:42:42;13.27;;;6.88;;
8622;SDS011;4349;47.552;8.904;2023-06-22T10:45:10;11.27;;;6.28;;
8622;SDS011;4349;47.552;8.904;2023-06-22T10:47:38;8.70;;;6.57;;
8622;SDS011;4349;47.552;8.904;2023-06-22T10:50:08;7.63;;;6.10;;
8622;SDS011;4349;47.552;8.904;2023-06-22T10:52:36;9.75;;;6.78;;
8622;SDS011;4349;47.552;8.904;2023-06-22T10:55:05;9.35;;;6.78;;
8622;SDS011;4349;47.552;8.904;2023-06-22T10:57:33;9.25;;;6.45;;
8622;SDS011;4349;47.552;8.904;2023-06-22T11:00:00;11.00;;;7.05;;
8622;SDS011;4349;47.552;8.904;2023-06-22T11:02:30;11.95;;;7.05;;
8622;SDS011;4349;47.552;8.904;2023-06-22T11:04:58;10.93;;;7.03;;
8622;SDS011;4349;47.552;8.904;2023-06-22T11:07:27;9.15;;;6.75;;
8622;SDS011;4349;47.552;8.904;2023-06-22T11:09:55;13.50;;;6.88;;
8622;SDS011;4349;47.552;8.904;2023-06-22T11:12:23;8.70;;;6.10;;
8622;SDS011;4349;47.552;8.904;2023-06-22T11:14:51;10.40;;;7.15;;
8622;SDS011;4349;47.552;8.904;2023-06-22T11:17:19;10.95;;;7.28;;
8622;SDS011;4349;47.552;8.904;2023-06-22T11:19:46;9.32;;;6.45;;
8622;SDS011;4349;47.552;8.904;2023-06-22T11:22:14;8.70;;;6.97;;
8622;SDS011;4349;47.552;8.904;2023-06-22T11:24:41;8.77;;;6.82;;
8622;SDS011;4349;47.552;8.904;2023-06-22T11:27:08;10.68;;;7.20;;
8622;SDS011;4349;47.552;8.904;2023-06-22T11:29:37;10.27;;;7.60;;
8622;SDS011;4349;47.552;8.904;2023-06-22T11:32:07;12.50;;;7.07;;
8622;SDS011;4349;47.552;8.904;2023-06-22T11:34:37;9.30;;;6.78;;
8622;SDS011;4349;47.552;8.904;2023-06-22T11:37:05;9.27;;;7.15;;
8622;SDS011;4349;47.552;8.904;2023-06-22T11:39:32;11.82;;;8.23;;
8622;SDS011;4349;47.552;8.904;2023-06-22T11:42:08;7.68;;;6.60;;
8622;SDS011;4349;47.552;8.904;2023-06-22T11:44:37;9.93;;;6.88;;
8622;SDS011;4349;47.552;8.904;2023-06-22T11:47:05;12.27;;;6.70;;
8622;SDS011;4349;47.552;8.904;2023-06-22T11:49:32;10.82;;;7.35;;
8622;SDS011;4349;47.552;8.904;2023-06-22T11:52:00;10.50;;;7.78;;
8622;SDS011;4349;47.552;8.904;2023-06-22T11:54:28;10.32;;;6.68;;
8622;SDS011;4349;47.552;8.904;2023-06-22T11:56:55;12.18;;;7.22;;
8622;SDS011;4349;47.552;8.904;2023-06-22T11:59:23;12.10;;;7.10;;
8622;SDS011;4349;47.552;8.904;2023-06-22T12:01:52;8.93;;;6.93;;
8622;SDS011;4349;47.552;8.904;2023-06-22T12:04:19;8.43;;;7.00;;
8622;SDS011;4349;47.552;8.904;2023-06-22T12:06:47;12.27;;;7.00;;
8622;SDS011;4349;47.552;8.904;2023-06-22T12:09:14;10.80;;;7.65;;
8622;SDS011;4349;47.552;8.904;2023-06-22T12:11:42;9.15;;;8.00;;
8622;SDS011;4349;47.552;8.904;2023-06-22T12:14:09;11.48;;;7.63;;
8622;SDS011;4349;47.552;8.904;2023-06-22T12:16:37;10.98;;;7.38;;
8622;SDS011;4349;47.552;8.904;2023-06-22T12:19:06;10.43;;;7.55;;
8622;SDS011;4349;47.552;8.904;2023-06-22T12:21:33;10.85;;;7.90;;
8622;SDS011;4349;47.552;8.904;2023-06-22T12:24:01;10.82;;;7.55;;
8622;SDS011;4349;47.552;8.904;2023-06-22T12:26:28;11.95;;;7.90;;
8622;SDS011;4349;47.552;8.904;2023-06-22T12:28:56;9.35;;;6.93;;
8622;SDS011;4349;47.552;8.904;2023-06-22T12:31:23;10.35;;;7.45;;
8622;SDS011;4349;47.552;8.904;2023-06-22T12:33:51;9.52;;;7.20;;
8622;SDS011;4349;47.552;8.904;2023-06-22T12:36:20;10.02;;;6.68;;
8622;SDS011;4349;47.552;8.904;2023-06-22T12:38:47;9.38;;;7.35;;
8622;SDS011;4349;47.552;8.904;2023-06-22T12:41:14;16.85;;;7.78;;
8622;SDS011;4349;47.552;8.904;2023-06-22T12:43:42;7.75;;;7.00;;
8622;SDS011;4349;47.552;8.904;2023-06-22T12:46:09;11.82;;;6.95;;
8622;SDS011;4349;47.552;8.904;2023-06-22T12:48:37;11.82;;;7.68;;
8622;SDS011;4349;47.552;8.904;2023-06-22T12:51:08;7.70;;;6.93;;
8622;SDS011;4349;47.552;8.904;2023-06-22T12:53:37;8.38;;;6.50;;
8622;SDS011;4349;47.552;8.904;2023-06-22T12:56:04;8.75;;;6.38;;
8622;SDS011;4349;47.552;8.904;2023-06-22T12:58:32;11.07;;;6.78;;
8622;SDS011;4349;47.552;8.904;2023-06-22T13:00:59;10.40;;;6.68;;
8622;SDS011;4349;47.552;8.904;2023-06-22T13:03:27;7.72;;;6.32;;
8622;SDS011;4349;47.552;8.904;2023-06-22T13:05:54;10.95;;;6.72;;
8622;SDS011;4349;47.552;8.904;2023-06-22T13:08:22;6.75;;;5.80;;
8622;SDS011;4349;47.552;8.904;2023-06-22T13:11:10;7.68;;;6.70;;
8622;SDS011;4349;47.552;8.904;2023-06-22T13:13:38;9.05;;;6.93;;
8622;SDS011;4349;47.552;8.904;2023-06-22T13:16:06;11.25;;;6.47;;
8622;SDS011;4349;47.552;8.904;2023-06-22T13:18:33;10.88;;;6.47;;
8622;SDS011;4349;47.552;8.904;2023-06-22T13:21:02;9.02;;;7.35;;
8622;SDS011;4349;47.552;8.904;2023-06-22T13:23:29;10.48;;;7.57;;
8622;SDS011;4349;47.552;8.904;2023-06-22T13:25:57;9.13;;;6.35;;
8622;SDS011;4349;47.552;8.904;2023-06-22T13:28:26;11.00;;;7.20;;
8622;SDS011;4349;47.552;8.904;2023-06-22T13:30:55;13.27;;;7.13;;
8622;SDS011;4349;47.552;8.904;2023-06-22T13:33:22;9.73;;;6.88;;
8622;SDS011;4349;47.552;8.904;2023-06-22T13:35:50;8.60;;;6.65;;
8622;SDS011;4349;47.552;8.904;2023-06-22T13:38:17;9.45;;;6.40;;
8622;SDS011;4349;47.552;8.904;2023-06-22T13:40:45;10.65;;;5.88;;
8622;SDS011;4349;47.552;8.904;2023-06-22T13:43:13;12.90;;;5.75;;
8622;SDS011;4349;47.552;8.904;2023-06-22T13:45:43;10.40;;;5.93;;
8622;SDS011;4349;47.552;8.904;2023-06-22T13:48:10;11.80;;;6.03;;
8622;SDS011;4349;47.552;8.904;2023-06-22T13:50:38;7.72;;;5.72;;
8622;SDS011;4349;47.552;8.904;2023-06-22T13:53:05;7.55;;;5.18;;
8622;SDS011;4349;47.552;8.904;2023-06-22T13:55:33;10.00;;;5.53;;
8622;SDS011;4349;47.552;8.904;2023-06-22T13:58:01;9.02;;;5.25;;
8622;SDS011;4349;47.552;8.904;2023-06-22T14:00:28;10.93;;;5.13;;
8622;SDS011;4349;47.552;8.904;2023-06-22T14:02:57;5.72;;;5.15;;
8622;SDS011;4349;47.552;8.904;2023-06-22T14:05:26;7.93;;;5.18;;
8622;SDS011;4349;47.552;8.904;2023-06-22T14:07:53;10.40;;;4.20;;
8622;SDS011;4349;47.552;8.904;2023-06-22T14:10:21;13.75;;;4.93;;
8622;SDS011;4349;47.552;8.904;2023-06-22T14:12:48;7.57;;;4.55;;
8622;SDS011;4349;47.552;8.904;2023-06-22T14:15:16;8.88;;;4.65;;
8622;SDS011;4349;47.552;8.904;2023-06-22T14:17:43;12.18;;;5.47;;
8622;SDS011;4349;47.552;8.904;2023-06-22T14:20:12;7.43;;;4.32;;
8622;SDS011;4349;47.552;8.904;2023-06-22T14:22:40;6.60;;;3.95;;
8622;SDS011;4349;47.552;8.904;2023-06-22T14:25:07;5.90;;;4.80;;
8622;SDS011;4349;47.552;8.904;2023-06-22T14:27:35;6.55;;;4.65;;
8622;SDS011;4349;47.552;8.904;2023-06-22T14:30:02;7.07;;;4.38;;
8622;SDS011;4349;47.552;8.904;2023-06-22T14:32:32;8.13;;;4.30;;
8622;SDS011;4349;47.552;8.904;2023-06-22T14:35:00;6.30;;;4.10;;
8622;SDS011;4349;47.552;8.904;2023-06-22T14:37:29;8.95;;;4.00;;
8622;SDS011;4349;47.552;8.904;2023-06-22T14:39:56;8.35;;;4.50;;
8622;SDS011;4349;47.552;8.904;2023-06-22T14:42:25;9.13;;;4.30;;
8622;SDS011;4349;47.552;8.904;2023-06-22T14:44:54;8.23;;;5.45;;
8622;SDS011;4349;47.552;8.904;2023-06-22T14:47:22;7.57;;;4.43;;
8622;SDS011;4349;47.552;8.904;2023-06-22T14:49:49;9.82;;;4.22;;
8622;SDS011;4349;47.552;8.904;2023-06-22T14:52:17;6.40;;;4.32;;
8622;SDS011;4349;47.552;8.904;2023-06-22T14:54:46;6.30;;;4.25;;
8622;SDS011;4349;47.552;8.904;2023-06-22T14:57:13;8.77;;;4.03;;
8622;SDS011;4349;47.552;8.904;2023-06-22T14:59:44;6.97;;;4.50;;
8622;SDS011;4349;47.552;8.904;2023-06-22T15:02:11;7.45;;;4.15;;
8622;SDS011;4349;47.552;8.904;2023-06-22T15:04:39;9.95;;;4.97;;
8622;SDS011;4349;47.552;8.904;2023-06-22T15:07:06;8.15;;;4.10;;
8622;SDS011;4349;47.552;8.904;2023-06-22T15:09:34;8.23;;;4.05;;
8622;SDS011;4349;47.552;8.904;2023-06-22T15:12:03;5.60;;;4.20;;
8622;SDS011;4349;47.552;8.904;2023-06-22T15:14:33;5.57;;;4.20;;